sensor_id;sensor_type;location;lat;lon;timestamp;P1;durP1;ratioP1;P2;durP2;ratioP2
5742;SDS011;2896;53.500;10.020;2023-11-19T00:01:32;16.77;;;11.30;;
5742;SDS011;2896;53.500;10.020;2023-11-19T00:03:59;16.97;;;11.43;;
5742;SDS011;2896;53.500;10.020;2023-11-19T00:06:25;14.30;;;10.57;;
5742;SDS011;2896;53.500;10.020;2023-11-19T00:08:52;18.80;;;11.67;;
5742;SDS011;2896;53.500;10.020;2023-11-19T00:11:19;12.10;;;9.40;;
5742;SDS011;2896;53.500;10.020;2023-11-19T00:13:47;18.77;;;11.03;;
5742;SDS011;2896;53.500;10.020;2023-11-19T00:16:14;11.50;;;8.90;;
5742;SDS011;2896;53.500;10.020;2023-11-19T00:18:41;13.40;;;9.80;;
5742;SDS011;2896;53.500;10.020;2023-11-19T00:21:08;12.13;;;8.90;;
5742;SDS011;2896;53.500;10.020;2023-11-19T00:23:35;11.77;;;9.60;;
5742;SDS011;2896;53.500;10.020;2023-11-19T00:26:02;13.17;;;8.80;;
5742;SDS011;2896;53.500;10.020;2023-11-19T00:28:31;12.33;;;8.83;;
5742;SDS011;2896;53.500;10.020;2023-11-19T00:30:59;14.37;;;9.77;;
5742;SDS011;2896;53.500;10.020;2023-11-19T00:33:26;11.00;;;8.27;;
5742;SDS011;2896;53.500;10.020;2023-11-19T00:35:51;9.97;;;8.30;;
5742;SDS011;2896;53.500;10.020;2023-11-19T00:38:18;12.90;;;8.40;;
5742;SDS011;2896;53.500;10.020;2023-11-19T00:40:45;10.27;;;8.60;;
5742;SDS011;2896;53.500;10.020;2023-11-19T00:43:11;8.83;;;7.27;;
5742;SDS011;2896;53.500;10.020;2023-11-19T00:45:38;7.77;;;6.97;;
5742;SDS011;2896;53.500;10.020;2023-11-19T00:48:06;10.23;;;7.40;;
5742;SDS011;2896;53.500;10.020;2023-11-19T00:50:33;14.93;;;7.10;;
5742;SDS011;2896;53.500;10.020;2023-11-19T00:52:59;9.53;;;7.20;;
5742;SDS011;2896;53.500;10.020;2023-11-19T00:55:28;8.60;;;7.47;;
5742;SDS011;2896;53.500;10.020;2023-11-19T00:57:55;8.50;;;7.13;;
5742;SDS011;2896;53.500;10.020;2023-11-19T01:00:22;19.40;;;6.27;;
5742;SDS011;2896;53.500;10.020;2023-11-19T01:02:52;13.60;;;7.20;;
5742;SDS011;2896;53.500;10.020;2023-11-19T01:05:20;10.40;;;6.70;;
5742;SDS011;2896;53.500;10.020;2023-11-19T01:07:47;7.63;;;5.57;;
5742;SDS011;2896;53.500;10.020;2023-11-19T01:10:15;6.70;;;5.70;;
5742;SDS011;2896;53.500;10.020;2023-11-19T01:12:43;7.03;;;5.43;;
5742;SDS011;2896;53.500;10.020;2023-11-19T01:15:10;8.00;;;6.40;;
5742;SDS011;2896;53.500;10.020;2023-11-19T01:17:38;8.10;;;6.20;;
5742;SDS011;2896;53.500;10.020;2023-11-19T01:20:05;8.00;;;5.20;;
5742;SDS011;2896;53.500;10.020;2023-11-19T01:22:38;5.97;;;5.37;;
5742;SDS011;2896;53.500;10.020;2023-11-19T01:25:06;6.10;;;5.10;;
5742;SDS011;2896;53.500;10.020;2023-11-19T01:27:33;5.50;;;5.10;;
5742;SDS011;2896;53.500;10.020;2023-11-19T01:30:00;4.67;;;4.37;;
5742;SDS011;2896;53.500;10.020;2023-11-19T01:32:28;4.47;;;4.17;;
5742;SDS011;2896;53.500;10.020;2023-11-19T01:34:55;4.70;;;4.40;;
5742;SDS011;2896;53.500;10.020;2023-11-19T01:37:21;6.00;;;5.07;;
5742;SDS011;2896;53.500;10.020;2023-11-19T01:39:49;4.07;;;3.87;;
5742;SDS011;2896;53.500;10.020;2023-11-19T01:42:16;4.40;;;4.10;;
5742;SDS011;2896;53.500;10.020;2023-11-19T01:44:53;3.70;;;3.40;;
5742;SDS011;2896;53.500;10.020;2023-11-19T01:47:23;3.67;;;3.37;;
5742;SDS011;2896;53.500;10.020;2023-11-19T01:49:50;3.80;;;3.30;;
5742;SDS011;2896;53.500;10.020;2023-11-19T01:52:17;2.97;;;2.77;;
5742;SDS011;2896;53.500;10.020;2023-11-19T01:54:44;3.00;;;2.90;;
5742;SDS011;2896;53.500;10.020;2023-11-19T01:57:13;3.07;;;2.87;;
5742;SDS011;2896;53.500;10.020;2023-11-19T01:59:41;3.30;;;3.03;;
5742;SDS011;2896;53.500;10.020;2023-11-19T02:02:08;2.77;;;2.67;;
5742;SDS011;2896;53.500;10.020;2023-11-19T02:04:35;2.50;;;2.43;;
5742;SDS011;2896;53.500;10.020;2023-11-19T02:07:03;2.30;;;2.30;;
5742;SDS011;2896;53.500;10.020;2023-11-19T02:09:30;2.23;;;2.13;;
5742;SDS011;2896;53.500;10.020;2023-11-19T02:11:56;1.90;;;1.83;;
5742;SDS011;2896;53.500;10.020;2023-11-19T02:14:25;2.40;;;2.30;;
5742;SDS011;2896;53.500;10.020;2023-11-19T02:16:52;2.13;;;2.13;;
5742;SDS011;2896;53.500;10.020;2023-11-19T02:19:19;2.03;;;1.93;;
5742;SDS011;2896;53.500;10.020;2023-11-19T02:21:45;2.27;;;2.17;;
5742;SDS011;2896;53.500;10.020;2023-11-19T02:24:13;1.60;;;1.60;;
5742;SDS011;2896;53.500;10.020;2023-11-19T02:26:44;2.40;;;2.30;;
5742;SDS011;2896;53.500;10.020;2023-11-19T02:29:19;2.40;;;2.30;;
5742;SDS011;2896;53.500;10.020;2023-11-19T02:31:45;1.80;;;1.80;;
5742;SDS011;2896;53.500;10.020;2023-11-19T02:34:12;1.90;;;1.90;;
5742;SDS011;2896;53.500;10.020;2023-11-19T02:36:39;1.97;;;1.97;;
5742;SDS011;2896;53.500;10.020;2023-11-19T02:39:06;2.40;;;2.20;;
5742;SDS011;2896;53.500;10.020;2023-11-19T02:41:36;2.23;;;2.13;;
5742;SDS011;2896;53.500;10.020;2023-11-19T02:44:04;2.33;;;2.23;;
5742;SDS011;2896;53.500;10.020;2023-11-19T02:46:33;1.97;;;1.87;;
5742;SDS011;2896;53.500;10.020;2023-11-19T02:49:00;2.20;;;2.10;;
5742;SDS011;2896;53.500;10.020;2023-11-19T02:51:26;1.70;;;1.60;;
5742;SDS011;2896;53.500;10.020;2023-11-19T02:53:55;2.17;;;2.17;;
5742;SDS011;2896;53.500;10.020;2023-11-19T02:56:22;2.30;;;2.20;;
5742;SDS011;2896;53.500;10.020;2023-11-19T02:58:51;2.10;;;1.90;;
5742;SDS011;2896;53.500;10.020;2023-11-19T03:01:22;2.10;;;2.10;;
5742;SDS011;2896;53.500;10.020;2023-11-19T03:03:55;2.10;;;2.10;;
5742;SDS011;2896;53.500;10.020;2023-11-19T03:06:23;2.00;;;2.00;;
5742;SDS011;2896;53.500;10.020;2023-11-19T03:08:50;2.27;;;2.07;;
5742;SDS011;2896;53.500;10.020;2023-11-19T03:11:17;2.03;;;1.93;;
5742;SDS011;2896;53.500;10.020;2023-11-19T03:13:44;2.40;;;2.30;;
5742;SDS011;2896;53.500;10.020;2023-11-19T03:16:11;2.30;;;2.20;;
5742;SDS011;2896;53.500;10.020;2023-11-19T03:18:38;2.80;;;2.80;;
5742;SDS011;2896;53.500;10.020;2023-11-19T03:21:06;2.03;;;1.93;;
5742;SDS011;2896;53.500;10.020;2023-11-19T03:23:34;3.23;;;2.23;;
5742;SDS011;2896;53.500;10.020;2023-11-19T03:26:00;2.47;;;2.37;;
5742;SDS011;2896;53.500;10.020;2023-11-19T03:28:30;2.43;;;2.33;;
5742;SDS011;2896;53.500;10.020;2023-11-19T03:30:57;2.30;;;2.30;;
5742;SDS011;2896;53.500;10.020;2023-11-19T03:33:23;2.43;;;2.43;;
5742;SDS011;2896;53.500;10.020;2023-11-19T03:35:50;2.57;;;2.50;;
5742;SDS011;2896;53.500;10.020;2023-11-19T03:38:18;2.60;;;2.50;;
5742;SDS011;2896;53.500;10.020;2023-11-19T03:40:45;3.13;;;2.83;;
5742;SDS011;2896;53.500;10.020;2023-11-19T03:43:12;2.57;;;2.47;;
5742;SDS011;2896;53.500;10.020;2023-11-19T03:45:39;2.70;;;2.50;;
5742;SDS011;2896;53.500;10.020;2023-11-19T03:48:05;2.57;;;2.47;;
5742;SDS011;2896;53.500;10.020;2023-11-19T03:50:32;3.27;;;3.07;;
5742;SDS011;2896;53.500;10.020;2023-11-19T03:53:00;2.60;;;2.40;;
5742;SDS011;2896;53.500;10.020;2023-11-19T03:55:29;3.80;;;2.77;;
5742;SDS011;2896;53.500;10.020;2023-11-19T03:57:56;2.83;;;2.73;;
5742;SDS011;2896;53.500;10.020;2023-11-19T04:00:23;2.87;;;2.80;;
5742;SDS011;2896;53.500;10.020;2023-11-19T04:02:49;2.70;;;2.70;;
5742;SDS011;2896;53.500;10.020;2023-11-19T04:05:16;2.97;;;2.87;;
5742;SDS011;2896;53.500;10.020;2023-11-19T04:07:43;2.50;;;2.50;;
5742;SDS011;2896;53.500;10.020;2023-11-19T04:10:10;3.53;;;3.10;;
5742;SDS011;2896;53.500;10.020;2023-11-19T04:12:38;3.10;;;3.00;;
5742;SDS011;2896;53.500;10.020;2023-11-19T04:15:05;3.40;;;3.30;;
5742;SDS011;2896;53.500;10.020;2023-11-19T04:17:33;3.27;;;3.17;;
5742;SDS011;2896;53.500;10.020;2023-11-19T04:20:00;3.03;;;2.93;;
5742;SDS011;2896;53.500;10.020;2023-11-19T04:22:29;3.10;;;3.00;;
5742;SDS011;2896;53.500;10.020;2023-11-19T04:24:56;2.77;;;2.67;;
5742;SDS011;2896;53.500;10.020;2023-11-19T04:27:23;2.67;;;2.67;;
5742;SDS011;2896;53.500;10.020;2023-11-19T04:29:51;3.10;;;3.00;;
5742;SDS011;2896;53.500;10.020;2023-11-19T04:32:18;3.20;;;3.10;;
5742;SDS011;2896;53.500;10.020;2023-11-19T04:34:46;2.43;;;2.43;;
5742;SDS011;2896;53.500;10.020;2023-11-19T04:37:12;3.97;;;3.77;;
5742;SDS011;2896;53.500;10.020;2023-11-19T04:39:39;3.23;;;3.13;;
5742;SDS011;2896;53.500;10.020;2023-11-19T04:42:06;3.30;;;3.20;;
5742;SDS011;2896;53.500;10.020;2023-11-19T04:44:32;3.43;;;3.30;;
5742;SDS011;2896;53.500;10.020;2023-11-19T04:47:00;3.30;;;3.10;;
5742;SDS011;2896;53.500;10.020;2023-11-19T04:49:27;4.10;;;3.87;;
5742;SDS011;2896;53.500;10.020;2023-11-19T04:51:53;3.70;;;3.50;;
5742;SDS011;2896;53.500;10.020;2023-11-19T04:54:20;3.93;;;3.60;;
5742;SDS011;2896;53.500;10.020;2023-11-19T04:56:46;3.80;;;3.60;;
5742;SDS011;2896;53.500;10.020;2023-11-19T04:59:13;4.00;;;3.73;;
5742;SDS011;2896;53.500;10.020;2023-11-19T05:01:40;4.53;;;4.23;;
5742;SDS011;2896;53.500;10.020;2023-11-19T05:04:08;4.80;;;4.40;;
5742;SDS011;2896;53.500;10.020;2023-11-19T05:06:35;5.63;;;5.13;;
5742;SDS011;2896;53.500;10.020;2023-11-19T05:09:02;5.23;;;4.83;;
5742;SDS011;2896;53.500;10.020;2023-11-19T05:11:30;5.77;;;5.30;;
5742;SDS011;2896;53.500;10.020;2023-11-19T05:13:58;5.30;;;4.90;;
5742;SDS011;2896;53.500;10.020;2023-11-19T05:16:25;5.63;;;5.13;;
5742;SDS011;2896;53.500;10.020;2023-11-19T05:18:51;11.90;;;7.30;;
5742;SDS011;2896;53.500;10.020;2023-11-19T05:21:19;6.67;;;5.53;;
5742;SDS011;2896;53.500;10.020;2023-11-19T05:23:46;9.87;;;6.87;;
5742;SDS011;2896;53.500;10.020;2023-11-19T05:26:17;11.20;;;7.40;;
5742;SDS011;2896;53.500;10.020;2023-11-19T05:28:44;14.70;;;10.13;;
5742;SDS011;2896;53.500;10.020;2023-11-19T05:31:11;18.07;;;9.97;;
5742;SDS011;2896;53.500;10.020;2023-11-19T05:33:37;32.90;;;16.97;;
5742;SDS011;2896;53.500;10.020;2023-11-19T05:36:04;50.97;;;21.47;;
5742;SDS011;2896;53.500;10.020;2023-11-19T05:38:34;56.97;;;22.63;;
5742;SDS011;2896;53.500;10.020;2023-11-19T05:41:01;66.90;;;24.03;;
5742;SDS011;2896;53.500;10.020;2023-11-19T05:43:27;60.33;;;23.50;;
5742;SDS011;2896;53.500;10.020;2023-11-19T05:45:54;78.60;;;26.20;;
5742;SDS011;2896;53.500;10.020;2023-11-19T05:48:21;64.70;;;26.40;;
5742;SDS011;2896;53.500;10.020;2023-11-19T05:50:47;79.80;;;25.37;;
5742;SDS011;2896;53.500;10.020;2023-11-19T05:53:15;62.10;;;22.37;;
5742;SDS011;2896;53.500;10.020;2023-11-19T05:55:43;89.67;;;22.70;;
5742;SDS011;2896;53.500;10.020;2023-11-19T05:58:13;73.07;;;22.93;;
5742;SDS011;2896;53.500;10.020;2023-11-19T06:00:40;62.10;;;22.83;;
5742;SDS011;2896;53.500;10.020;2023-11-19T06:03:07;70.93;;;23.30;;
5742;SDS011;2896;53.500;10.020;2023-11-19T06:05:33;63.23;;;24.07;;
5742;SDS011;2896;53.500;10.020;2023-11-19T06:08:00;104.23;;;26.50;;
5742;SDS011;2896;53.500;10.020;2023-11-19T06:10:27;87.67;;;25.00;;
5742;SDS011;2896;53.500;10.020;2023-11-19T06:12:57;72.43;;;24.27;;
5742;SDS011;2896;53.500;10.020;2023-11-19T06:15:24;66.47;;;25.30;;
5742;SDS011;2896;53.500;10.020;2023-11-19T06:17:51;83.40;;;23.33;;
5742;SDS011;2896;53.500;10.020;2023-11-19T06:20:18;77.77;;;21.43;;
5742;SDS011;2896;53.500;10.020;2023-11-19T06:22:44;54.83;;;20.30;;
5742;SDS011;2896;53.500;10.020;2023-11-19T06:25:11;68.17;;;20.90;;
5742;SDS011;2896;53.500;10.020;2023-11-19T06:27:39;66.10;;;23.13;;
5742;SDS011;2896;53.500;10.020;2023-11-19T06:30:08;70.93;;;20.50;;
5742;SDS011;2896;53.500;10.020;2023-11-19T06:32:35;79.93;;;22.23;;
5742;SDS011;2896;53.500;10.020;2023-11-19T06:35:02;73.73;;;20.40;;
5742;SDS011;2896;53.500;10.020;2023-11-19T06:37:29;52.40;;;19.20;;
5742;SDS011;2896;53.500;10.020;2023-11-19T06:39:56;58.83;;;19.50;;
5742;SDS011;2896;53.500;10.020;2023-11-19T06:42:22;60.47;;;18.17;;
5742;SDS011;2896;53.500;10.020;2023-11-19T06:44:49;54.43;;;17.70;;
5742;SDS011;2896;53.500;10.020;2023-11-19T06:47:17;85.73;;;20.30;;
5742;SDS011;2896;53.500;10.020;2023-11-19T06:49:44;61.93;;;20.53;;
5742;SDS011;2896;53.500;10.020;2023-11-19T06:52:10;73.97;;;18.97;;
5742;SDS011;2896;53.500;10.020;2023-11-19T06:54:37;66.27;;;19.90;;
5742;SDS011;2896;53.500;10.020;2023-11-19T06:57:05;54.73;;;17.27;;
5742;SDS011;2896;53.500;10.020;2023-11-19T06:59:31;70.73;;;15.87;;
5742;SDS011;2896;53.500;10.020;2023-11-19T07:01:58;59.07;;;16.53;;
5742;SDS011;2896;53.500;10.020;2023-11-19T07:04:26;49.73;;;14.47;;
5742;SDS011;2896;53.500;10.020;2023-11-19T07:06:52;67.07;;;14.87;;
5742;SDS011;2896;53.500;10.020;2023-11-19T07:09:19;54.70;;;14.60;;
5742;SDS011;2896;53.500;10.020;2023-11-19T07:11:46;43.93;;;15.87;;
5742;SDS011;2896;53.500;10.020;2023-11-19T07:14:12;49.63;;;15.03;;
5742;SDS011;2896;53.500;10.020;2023-11-19T07:16:39;56.03;;;15.47;;
5742;SDS011;2896;53.500;10.020;2023-11-19T07:19:06;67.43;;;14.00;;
5742;SDS011;2896;53.500;10.020;2023-11-19T07:21:34;39.13;;;12.50;;
5742;SDS011;2896;53.500;10.020;2023-11-19T07:24:04;51.00;;;12.20;;
5742;SDS011;2896;53.500;10.020;2023-11-19T07:26:32;42.20;;;12.00;;
5742;SDS011;2896;53.500;10.020;2023-11-19T07:28:58;53.23;;;12.50;;
5742;SDS011;2896;53.500;10.020;2023-11-19T07:31:26;37.43;;;11.00;;
5742;SDS011;2896;53.500;10.020;2023-11-19T07:33:53;36.37;;;10.20;;
5742;SDS011;2896;53.500;10.020;2023-11-19T07:36:20;33.17;;;10.43;;
5742;SDS011;2896;53.500;10.020;2023-11-19T07:38:48;39.20;;;11.33;;
5742;SDS011;2896;53.500;10.020;2023-11-19T07:41:15;45.63;;;11.07;;
5742;SDS011;2896;53.500;10.020;2023-11-19T07:43:43;61.97;;;12.57;;
5742;SDS011;2896;53.500;10.020;2023-11-19T07:46:10;54.60;;;12.33;;
5742;SDS011;2896;53.500;10.020;2023-11-19T07:48:38;61.33;;;13.23;;
5742;SDS011;2896;53.500;10.020;2023-11-19T07:51:05;53.13;;;12.40;;
5742;SDS011;2896;53.500;10.020;2023-11-19T07:53:32;55.50;;;11.20;;
5742;SDS011;2896;53.500;10.020;2023-11-19T07:56:00;42.23;;;9.80;;
5742;SDS011;2896;53.500;10.020;2023-11-19T07:58:27;75.33;;;11.10;;
5742;SDS011;2896;53.500;10.020;2023-11-19T08:00:53;54.33;;;9.07;;
5742;SDS011;2896;53.500;10.020;2023-11-19T08:03:20;53.70;;;9.57;;
5742;SDS011;2896;53.500;10.020;2023-11-19T08:05:48;48.23;;;9.57;;
5742;SDS011;2896;53.500;10.020;2023-11-19T08:08:14;40.60;;;8.00;;
5742;SDS011;2896;53.500;10.020;2023-11-19T08:10:41;59.60;;;9.80;;
5742;SDS011;2896;53.500;10.020;2023-11-19T08:13:10;46.20;;;8.47;;
5742;SDS011;2896;53.500;10.020;2023-11-19T08:15:37;51.27;;;9.03;;
5742;SDS011;2896;53.500;10.020;2023-11-19T08:18:05;62.77;;;8.40;;
5742;SDS011;2896;53.500;10.020;2023-11-19T08:20:32;52.67;;;8.53;;
5742;SDS011;2896;53.500;10.020;2023-11-19T08:22:58;41.33;;;8.30;;
5742;SDS011;2896;53.500;10.020;2023-11-19T08:25:25;34.97;;;7.97;;
5742;SDS011;2896;53.500;10.020;2023-11-19T08:27:52;54.23;;;9.53;;
5742;SDS011;2896;53.500;10.020;2023-11-19T08:30:19;39.07;;;8.07;;
5742;SDS011;2896;53.500;10.020;2023-11-19T08:32:46;55.97;;;9.30;;
5742;SDS011;2896;53.500;10.020;2023-11-19T08:35:13;50.67;;;9.20;;
5742;SDS011;2896;53.500;10.020;2023-11-19T08:37:41;58.80;;;8.10;;
5742;SDS011;2896;53.500;10.020;2023-11-19T08:40:07;47.67;;;8.90;;
5742;SDS011;2896;53.500;10.020;2023-11-19T08:42:35;49.40;;;7.67;;
5742;SDS011;2896;53.500;10.020;2023-11-19T08:45:04;49.10;;;8.30;;
5742;SDS011;2896;53.500;10.020;2023-11-19T08:47:33;45.63;;;7.30;;
5742;SDS011;2896;53.500;10.020;2023-11-19T08:49:59;54.03;;;8.67;;
5742;SDS011;2896;53.500;10.020;2023-11-19T08:52:26;30.83;;;7.10;;
5742;SDS011;2896;53.500;10.020;2023-11-19T08:54:53;40.23;;;7.60;;
5742;SDS011;2896;53.500;10.020;2023-11-19T08:57:19;47.37;;;8.93;;
5742;SDS011;2896;53.500;10.020;2023-11-19T08:59:46;40.10;;;7.90;;
5742;SDS011;2896;53.500;10.020;2023-11-19T09:02:13;41.30;;;9.10;;
5742;SDS011;2896;53.500;10.020;2023-11-19T09:04:41;55.90;;;8.00;;
5742;SDS011;2896;53.500;10.020;2023-11-19T09:07:07;41.77;;;7.57;;
5742;SDS011;2896;53.500;10.020;2023-11-19T09:09:34;47.47;;;9.10;;
5742;SDS011;2896;53.500;10.020;2023-11-19T09:12:01;43.97;;;6.53;;
5742;SDS011;2896;53.500;10.020;2023-11-19T09:14:28;36.27;;;6.87;;
5742;SDS011;2896;53.500;10.020;2023-11-19T09:16:55;38.73;;;7.00;;
5742;SDS011;2896;53.500;10.020;2023-11-19T09:19:23;46.00;;;7.27;;
5742;SDS011;2896;53.500;10.020;2023-11-19T09:21:51;52.13;;;7.57;;
5742;SDS011;2896;53.500;10.020;2023-11-19T09:24:18;41.90;;;7.80;;
5742;SDS011;2896;53.500;10.020;2023-11-19T09:26:44;49.33;;;7.30;;
5742;SDS011;2896;53.500;10.020;2023-11-19T09:29:11;54.57;;;9.50;;
5742;SDS011;2896;53.500;10.020;2023-11-19T09:31:39;52.10;;;8.30;;
5742;SDS011;2896;53.500;10.020;2023-11-19T09:34:06;41.73;;;6.80;;
5742;SDS011;2896;53.500;10.020;2023-11-19T09:36:32;46.00;;;8.63;;
5742;SDS011;2896;53.500;10.020;2023-11-19T09:39:00;44.30;;;9.13;;
5742;SDS011;2896;53.500;10.020;2023-11-19T09:41:28;40.43;;;7.80;;
5742;SDS011;2896;53.500;10.020;2023-11-19T09:43:55;44.80;;;7.90;;
5742;SDS011;2896;53.500;10.020;2023-11-19T09:46:22;47.07;;;7.93;;
5742;SDS011;2896;53.500;10.020;2023-11-19T09:48:50;52.87;;;9.37;;
5742;SDS011;2896;53.500;10.020;2023-11-19T09:51:20;27.70;;;6.03;;
5742;SDS011;2896;53.500;10.020;2023-11-19T09:53:47;39.23;;;6.60;;
5742;SDS011;2896;53.500;10.020;2023-11-19T09:56:15;36.93;;;6.23;;
5742;SDS011;2896;53.500;10.020;2023-11-19T09:58:42;43.10;;;7.80;;
5742;SDS011;2896;53.500;10.020;2023-11-19T10:01:09;37.60;;;7.33;;
5742;SDS011;2896;53.500;10.020;2023-11-19T10:03:37;49.30;;;8.17;;
5742;SDS011;2896;53.500;10.020;2023-11-19T10:06:06;56.40;;;8.40;;
5742;SDS011;2896;53.500;10.020;2023-11-19T10:08:33;50.90;;;7.63;;
5742;SDS011;2896;53.500;10.020;2023-11-19T10:11:00;54.63;;;8.47;;
5742;SDS011;2896;53.500;10.020;2023-11-19T10:13:28;35.23;;;7.57;;
5742;SDS011;2896;53.500;10.020;2023-11-19T10:15:55;38.67;;;7.53;;
5742;SDS011;2896;53.500;10.020;2023-11-19T10:18:25;48.50;;;7.43;;
5742;SDS011;2896;53.500;10.020;2023-11-19T10:20:52;40.17;;;7.77;;
5742;SDS011;2896;53.500;10.020;2023-11-19T10:23:19;44.63;;;7.10;;
5742;SDS011;2896;53.500;10.020;2023-11-19T10:25:46;39.83;;;7.20;;
5742;SDS011;2896;53.500;10.020;2023-11-19T10:28:14;48.90;;;7.60;;
5742;SDS011;2896;53.500;10.020;2023-11-19T10:30:43;52.80;;;8.57;;
5742;SDS011;2896;53.500;10.020;2023-11-19T10:33:10;48.13;;;8.43;;
5742;SDS011;2896;53.500;10.020;2023-11-19T10:35:50;40.03;;;6.57;;
5742;SDS011;2896;53.500;10.020;2023-11-19T10:38:18;41.23;;;7.67;;
5742;SDS011;2896;53.500;10.020;2023-11-19T10:40:45;43.77;;;7.53;;
5742;SDS011;2896;53.500;10.020;2023-11-19T10:43:12;62.97;;;7.80;;
5742;SDS011;2896;53.500;10.020;2023-11-19T10:45:39;38.20;;;7.07;;
5742;SDS011;2896;53.500;10.020;2023-11-19T10:48:08;35.67;;;7.17;;
5742;SDS011;2896;53.500;10.020;2023-11-19T10:50:35;39.53;;;7.93;;
5742;SDS011;2896;53.500;10.020;2023-11-19T10:53:03;44.43;;;8.00;;
5742;SDS011;2896;53.500;10.020;2023-11-19T10:55:31;38.87;;;7.60;;
5742;SDS011;2896;53.500;10.020;2023-11-19T10:58:00;41.70;;;6.60;;
5742;SDS011;2896;53.500;10.020;2023-11-19T11:00:29;30.10;;;6.73;;
5742;SDS011;2896;53.500;10.020;2023-11-19T11:03:00;51.57;;;6.17;;
5742;SDS011;2896;53.500;10.020;2023-11-19T11:05:29;43.60;;;7.23;;
5742;SDS011;2896;53.500;10.020;2023-11-19T11:08:00;49.53;;;8.60;;
5742;SDS011;2896;53.500;10.020;2023-11-19T11:10:27;35.43;;;6.50;;
5742;SDS011;2896;53.500;10.020;2023-11-19T11:12:58;46.80;;;7.63;;
5742;SDS011;2896;53.500;10.020;2023-11-19T11:15:26;38.93;;;7.53;;
5742;SDS011;2896;53.500;10.020;2023-11-19T11:17:54;39.40;;;7.27;;
5742;SDS011;2896;53.500;10.020;2023-11-19T11:20:26;49.63;;;7.10;;
5742;SDS011;2896;53.500;10.020;2023-11-19T11:22:57;50.70;;;7.00;;
5742;SDS011;2896;53.500;10.020;2023-11-19T11:25:38;41.90;;;6.40;;
5742;SDS011;2896;53.500;10.020;2023-11-19T11:28:20;39.50;;;7.50;;
5742;SDS011;2896;53.500;10.020;2023-11-19T11:30:59;28.70;;;6.30;;
5742;SDS011;2896;53.500;10.020;2023-11-19T11:33:39;33.57;;;6.50;;
5742;SDS011;2896;53.500;10.020;2023-11-19T11:36:19;37.10;;;7.30;;
5742;SDS011;2896;53.500;10.020;2023-11-19T11:38:48;28.30;;;6.47;;
5742;SDS011;2896;53.500;10.020;2023-11-19T11:41:15;49.30;;;7.20;;
5742;SDS011;2896;53.500;10.020;2023-11-19T11:43:44;41.63;;;7.33;;
5742;SDS011;2896;53.500;10.020;2023-11-19T11:49:11;34.10;;;6.87;;
5742;SDS011;2896;53.500;10.020;2023-11-19T11:51:57;42.73;;;8.10;;
5742;SDS011;2896;53.500;10.020;2023-11-19T11:54:30;42.23;;;7.40;;
5742;SDS011;2896;53.500;10.020;2023-11-19T11:57:01;48.07;;;8.20;;
5742;SDS011;2896;53.500;10.020;2023-11-19T11:59:47;41.50;;;7.27;;
5742;SDS011;2896;53.500;10.020;2023-11-19T12:02:15;54.83;;;8.50;;
5742;SDS011;2896;53.500;10.020;2023-11-19T12:04:46;38.93;;;7.50;;
5742;SDS011;2896;53.500;10.020;2023-11-19T12:07:14;53.30;;;6.53;;
5742;SDS011;2896;53.500;10.020;2023-11-19T12:09:47;50.00;;;8.40;;
5742;SDS011;2896;53.500;10.020;2023-11-19T12:12:20;36.30;;;5.80;;
5742;SDS011;2896;53.500;10.020;2023-11-19T12:15:04;52.33;;;9.00;;
5742;SDS011;2896;53.500;10.020;2023-11-19T12:17:36;34.97;;;6.77;;
5742;SDS011;2896;53.500;10.020;2023-11-19T12:20:05;41.13;;;7.80;;
5742;SDS011;2896;53.500;10.020;2023-11-19T12:22:34;45.37;;;8.27;;
5742;SDS011;2896;53.500;10.020;2023-11-19T12:25:03;33.53;;;7.57;;
5742;SDS011;2896;53.500;10.020;2023-11-19T12:27:31;38.83;;;6.33;;
5742;SDS011;2896;53.500;10.020;2023-11-19T12:29:58;48.23;;;8.30;;
5742;SDS011;2896;53.500;10.020;2023-11-19T12:32:25;34.23;;;7.23;;
5742;SDS011;2896;53.500;10.020;2023-11-19T12:34:52;39.37;;;6.50;;
5742;SDS011;2896;53.500;10.020;2023-11-19T12:37:18;35.37;;;6.90;;
5742;SDS011;2896;53.500;10.020;2023-11-19T12:39:46;40.27;;;7.50;;
5742;SDS011;2896;53.500;10.020;2023-11-19T12:42:14;38.20;;;6.30;;
5742;SDS011;2896;53.500;10.020;2023-11-19T12:44:53;37.90;;;8.03;;
5742;SDS011;2896;53.500;10.020;2023-11-19T12:47:21;40.97;;;7.33;;
5742;SDS011;2896;53.500;10.020;2023-11-19T12:49:54;33.53;;;6.70;;
5742;SDS011;2896;53.500;10.020;2023-11-19T12:52:22;37.20;;;7.10;;
5742;SDS011;2896;53.500;10.020;2023-11-19T12:54:49;31.70;;;7.63;;
5742;SDS011;2896;53.500;10.020;2023-11-19T12:57:18;38.70;;;7.87;;
5742;SDS011;2896;53.500;10.020;2023-11-19T12:59:54;39.10;;;6.10;;
5742;SDS011;2896;53.500;10.020;2023-11-19T13:02:21;29.90;;;5.90;;
5742;SDS011;2896;53.500;10.020;2023-11-19T13:04:48;31.23;;;6.73;;
5742;SDS011;2896;53.500;10.020;2023-11-19T13:07:19;32.67;;;6.07;;
5742;SDS011;2896;53.500;10.020;2023-11-19T13:09:46;36.90;;;7.10;;
5742;SDS011;2896;53.500;10.020;2023-11-19T13:12:13;28.43;;;6.13;;
5742;SDS011;2896;53.500;10.020;2023-11-19T13:14:43;28.90;;;5.50;;
5742;SDS011;2896;53.500;10.020;2023-11-19T13:17:14;32.40;;;6.00;;
5742;SDS011;2896;53.500;10.020;2023-11-19T13:19:41;40.50;;;7.43;;
5742;SDS011;2896;53.500;10.020;2023-11-19T13:22:08;43.83;;;7.80;;
5742;SDS011;2896;53.500;10.020;2023-11-19T13:24:34;34.77;;;7.40;;
5742;SDS011;2896;53.500;10.020;2023-11-19T13:27:02;49.50;;;7.80;;
5742;SDS011;2896;53.500;10.020;2023-11-19T13:29:29;42.77;;;7.03;;
5742;SDS011;2896;53.500;10.020;2023-11-19T13:31:57;44.50;;;9.03;;
5742;SDS011;2896;53.500;10.020;2023-11-19T13:34:25;36.77;;;7.20;;
5742;SDS011;2896;53.500;10.020;2023-11-19T13:36:51;31.53;;;6.47;;
5742;SDS011;2896;53.500;10.020;2023-11-19T13:39:18;32.70;;;7.00;;
5742;SDS011;2896;53.500;10.020;2023-11-19T13:41:48;38.87;;;6.30;;
5742;SDS011;2896;53.500;10.020;2023-11-19T13:44:15;51.77;;;7.63;;
5742;SDS011;2896;53.500;10.020;2023-11-19T13:46:44;46.47;;;7.57;;
5742;SDS011;2896;53.500;10.020;2023-11-19T13:49:12;44.83;;;6.63;;
5742;SDS011;2896;53.500;10.020;2023-11-19T13:51:38;29.07;;;6.40;;
5742;SDS011;2896;53.500;10.020;2023-11-19T13:54:05;39.60;;;6.47;;
5742;SDS011;2896;53.500;10.020;2023-11-19T13:56:32;36.87;;;6.87;;
5742;SDS011;2896;53.500;10.020;2023-11-19T13:58:58;37.90;;;6.80;;
5742;SDS011;2896;53.500;10.020;2023-11-19T14:01:25;33.67;;;5.93;;
5742;SDS011;2896;53.500;10.020;2023-11-19T14:03:52;36.63;;;6.37;;
5742;SDS011;2896;53.500;10.020;2023-11-19T14:06:20;41.60;;;6.20;;
5742;SDS011;2896;53.500;10.020;2023-11-19T14:08:47;38.40;;;5.00;;
5742;SDS011;2896;53.500;10.020;2023-11-19T14:11:14;44.00;;;8.03;;
5742;SDS011;2896;53.500;10.020;2023-11-19T14:13:40;41.03;;;7.17;;
5742;SDS011;2896;53.500;10.020;2023-11-19T14:16:07;40.30;;;7.47;;
5742;SDS011;2896;53.500;10.020;2023-11-19T14:18:35;35.33;;;6.70;;
5742;SDS011;2896;53.500;10.020;2023-11-19T14:21:02;35.03;;;6.20;;
5742;SDS011;2896;53.500;10.020;2023-11-19T14:23:31;35.93;;;8.83;;
5742;SDS011;2896;53.500;10.020;2023-11-19T14:25:58;31.83;;;7.27;;
5742;SDS011;2896;53.500;10.020;2023-11-19T14:28:24;24.80;;;5.30;;
5742;SDS011;2896;53.500;10.020;2023-11-19T14:30:51;34.03;;;7.83;;
5742;SDS011;2896;53.500;10.020;2023-11-19T14:33:21;39.33;;;6.10;;
5742;SDS011;2896;53.500;10.020;2023-11-19T14:35:48;35.37;;;5.00;;
5742;SDS011;2896;53.500;10.020;2023-11-19T14:38:15;32.50;;;6.07;;
5742;SDS011;2896;53.500;10.020;2023-11-19T14:40:43;43.93;;;6.70;;
5742;SDS011;2896;53.500;10.020;2023-11-19T14:43:09;30.20;;;5.90;;
5742;SDS011;2896;53.500;10.020;2023-11-19T14:45:36;31.83;;;6.20;;
5742;SDS011;2896;53.500;10.020;2023-11-19T14:48:03;31.83;;;7.00;;
5742;SDS011;2896;53.500;10.020;2023-11-19T14:50:31;33.57;;;7.50;;
5742;SDS011;2896;53.500;10.020;2023-11-19T14:52:57;30.20;;;7.10;;
5742;SDS011;2896;53.500;10.020;2023-11-19T14:55:24;29.80;;;6.00;;
5742;SDS011;2896;53.500;10.020;2023-11-19T14:57:52;42.23;;;6.70;;